createdAt,value
2022-11-09T00:01:15.472Z,1.63
2022-11-09T00:04:02.510Z,1.58
2022-11-09T00:06:47.776Z,1.38
2022-11-09T00:09:32.989Z,1.50
2022-11-09T00:12:18.259Z,1.60
2022-11-09T00:15:04.027Z,1.77
2022-11-09T00:17:49.859Z,1.40
2022-11-09T00:20:35.332Z,1.90
2022-11-09T00:23:20.994Z,1.70
2022-11-09T00:26:08.767Z,1.80
2022-11-09T00:28:53.952Z,1.98
2022-11-09T00:31:39.272Z,1.90
2022-11-09T00:34:26.067Z,1.65
2022-11-09T00:37:11.488Z,1.73
2022-11-09T00:39:57.414Z,1.40
2022-11-09T00:42:43.008Z,1.20
2022-11-09T00:45:28.438Z,1.88
2022-11-09T00:48:13.768Z,1.67
2022-11-09T00:51:00.583Z,1.80
2022-11-09T00:53:48.280Z,1.52
2022-11-09T00:56:34.050Z,1.80
2022-11-09T00:59:19.459Z,1.30
2022-11-09T01:02:05.945Z,1.50
2022-11-09T01:04:52.977Z,1.48
2022-11-09T01:07:38.977Z,1.85
2022-11-09T01:10:24.464Z,1.35
2022-11-09T01:13:16.004Z,1.30
2022-11-09T01:16:08.171Z,1.60
2022-11-09T01:18:56.190Z,1.37
2022-11-09T01:21:43.035Z,1.55
2022-11-09T01:24:28.501Z,1.30
2022-11-09T01:27:14.284Z,1.50
2022-11-09T01:29:59.616Z,1.52
2022-11-09T01:32:45.035Z,1.73
2022-11-09T01:35:32.752Z,1.50
2022-11-09T01:38:18.002Z,1.73
2022-11-09T01:41:04.371Z,1.52
2022-11-09T01:44:07.102Z,1.20
2022-11-09T01:50:00.220Z,1.95
2022-11-09T01:52:48.476Z,1.20
2022-11-09T01:55:34.244Z,1.30
2022-11-09T01:58:26.529Z,1.40
2022-11-09T02:01:14.223Z,1.38
2022-11-09T02:04:22.928Z,1.58
2022-11-09T02:07:10.350Z,1.60
2022-11-09T02:10:19.096Z,1.20
2022-11-09T02:13:05.450Z,1.10
2022-11-09T02:15:56.021Z,1.30
2022-11-09T02:18:56.140Z,1.92
2022-11-09T02:21:42.841Z,1.65
2022-11-09T02:24:28.217Z,1.20
2022-11-09T02:27:13.736Z,1.48
2022-11-09T02:30:01.070Z,1.25
2022-11-09T02:32:47.901Z,1.30
2022-11-09T02:35:33.162Z,1.70
2022-11-09T02:38:18.762Z,1.40
2022-11-09T02:41:04.216Z,1.52
2022-11-09T02:43:53.137Z,1.20
2022-11-09T02:46:38.704Z,1.10
2022-11-09T02:49:24.031Z,1.10
2022-11-09T02:52:11.180Z,1.20
2022-11-09T02:54:57.295Z,1.10
2022-11-09T02:57:42.567Z,1.58
2022-11-09T03:00:31.174Z,1.27
2022-11-09T03:03:16.801Z,1.95
2022-11-09T03:06:02.689Z,1.40
2022-11-09T03:08:48.843Z,1.60
2022-11-09T03:11:34.402Z,1.50
2022-11-09T03:14:20.071Z,1.42
2022-11-09T03:17:10.131Z,1.30
2022-11-09T03:19:56.435Z,1.65
2022-11-09T03:22:43.941Z,1.50
2022-11-09T03:25:29.792Z,1.20
2022-11-09T03:28:15.912Z,1.50
2022-11-09T03:31:02.236Z,1.60
2022-11-09T03:33:49.050Z,1.70
2022-11-09T03:36:34.148Z,1.40
2022-11-09T03:39:19.487Z,1.80
2022-11-09T03:42:04.973Z,1.20
2022-11-09T03:44:50.630Z,1.98
2022-11-09T03:47:35.857Z,1.38
2022-11-09T03:50:21.311Z,1.70
2022-11-09T03:53:09.507Z,1.67
2022-11-09T03:55:57.943Z,1.40
2022-11-09T03:58:43.333Z,1.45
2022-11-09T04:01:28.745Z,1.30
2022-11-09T04:04:14.456Z,1.33
2022-11-09T04:06:59.907Z,1.67
2022-11-09T04:09:45.321Z,1.50
2022-11-09T04:12:30.703Z,1.45
2022-11-09T04:15:16.808Z,1.40
2022-11-09T04:18:03.524Z,1.23
2022-11-09T04:20:48.920Z,1.52
2022-11-09T04:23:34.574Z,1.63
2022-11-09T04:26:19.952Z,1.50
2022-11-09T04:29:05.352Z,2.10
2022-11-09T04:31:51.314Z,1.60
2022-11-09T04:34:36.881Z,1.58
2022-11-09T04:37:22.456Z,1.60
2022-11-09T04:40:08.687Z,1.58
2022-11-09T04:42:53.861Z,1.65
2022-11-09T04:45:39.758Z,1.50
2022-11-09T04:48:25.201Z,1.33
2022-11-09T04:51:11.578Z,1.95
2022-11-09T04:53:56.722Z,1.70
2022-11-09T04:56:42.247Z,1.48
2022-11-09T04:59:27.844Z,1.60
2022-11-09T05:02:13.052Z,1.63
2022-11-09T05:04:59.082Z,1.40
2022-11-09T05:07:44.330Z,1.52
2022-11-09T05:10:30.103Z,1.48
2022-11-09T05:13:15.993Z,1.42
2022-11-09T05:16:01.375Z,1.40
2022-11-09T05:18:47.118Z,1.02
2022-11-09T05:21:32.411Z,1.55
2022-11-09T05:24:18.039Z,0.95
2022-11-09T05:27:04.938Z,1.58
2022-11-09T05:29:50.229Z,1.20
2022-11-09T05:32:39.021Z,1.33
2022-11-09T05:35:24.658Z,1.38
2022-11-09T05:38:10.345Z,1.30
2022-11-09T05:40:55.788Z,1.17
2022-11-09T05:43:41.525Z,1.88
2022-11-09T05:46:27.026Z,1.20
2022-11-09T05:49:12.506Z,1.20
2022-11-09T05:51:57.719Z,1.30
2022-11-09T05:54:43.179Z,1.45
2022-11-09T05:57:28.766Z,1.27
2022-11-09T06:00:15.023Z,1.77
2022-11-09T06:03:08.936Z,1.70
2022-11-09T06:05:54.120Z,1.40
2022-11-09T06:08:39.770Z,1.35
2022-11-09T06:11:25.214Z,1.40
2022-11-09T06:14:10.667Z,1.45
2022-11-09T06:16:55.921Z,1.00
2022-11-09T06:19:41.560Z,1.38
2022-11-09T06:22:26.855Z,1.30
2022-11-09T06:25:12.146Z,1.58
2022-11-09T06:27:58.289Z,1.65
2022-11-09T06:30:43.352Z,1.80
2022-11-09T06:33:33.188Z,1.42
2022-11-09T06:36:18.627Z,1.70
2022-11-09T06:39:03.932Z,2.03
2022-11-09T06:41:49.584Z,1.20
2022-11-09T06:44:35.087Z,1.88
2022-11-09T06:47:20.600Z,1.20
2022-11-09T06:50:06.222Z,1.35
2022-11-09T06:52:56.381Z,1.25
2022-11-09T06:55:47.186Z,1.38
2022-11-09T06:58:36.673Z,1.63
2022-11-09T07:01:26.862Z,1.98
2022-11-09T07:04:14.453Z,1.38
2022-11-09T07:07:00.319Z,1.40
2022-11-09T07:09:45.894Z,1.60
2022-11-09T07:12:33.133Z,1.55
2022-11-09T07:15:18.632Z,1.65
2022-11-09T07:18:06.197Z,1.63
2022-11-09T07:20:51.520Z,1.85
2022-11-09T07:23:37.268Z,1.75
2022-11-09T07:26:22.618Z,1.52
2022-11-09T07:29:08.124Z,1.95
2022-11-09T07:31:53.541Z,1.65
2022-11-09T07:34:38.972Z,1.70
2022-11-09T07:37:24.882Z,1.52
2022-11-09T07:40:10.658Z,2.00
2022-11-09T07:43:04.132Z,1.70
2022-11-09T07:45:50.247Z,1.58
2022-11-09T07:48:36.039Z,1.80
2022-11-09T07:51:21.426Z,1.92
2022-11-09T07:54:06.995Z,1.85
2022-11-09T07:56:52.351Z,1.60
2022-11-09T07:59:37.935Z,1.70
2022-11-09T08:02:24.142Z,1.88
2022-11-09T08:05:09.296Z,1.80
2022-11-09T08:07:57.063Z,1.60
2022-11-09T08:10:45.200Z,1.42
2022-11-09T08:13:30.819Z,2.05
2022-11-09T08:16:16.292Z,1.98
2022-11-09T08:19:01.899Z,2.22
2022-11-09T08:21:47.680Z,1.70
2022-11-09T08:24:33.318Z,2.03
2022-11-09T08:27:19.769Z,1.70
2022-11-09T08:30:06.127Z,1.50
2022-11-09T08:32:51.914Z,1.83
2022-11-09T08:35:38.093Z,1.83
2022-11-09T08:38:23.927Z,1.70
2022-11-09T08:41:13.474Z,1.40
2022-11-09T08:43:59.241Z,1.80
2022-11-09T08:46:44.848Z,2.45
2022-11-09T08:49:30.571Z,1.60
2022-11-09T08:52:18.875Z,2.00
2022-11-09T08:55:05.282Z,1.70
2022-11-09T08:57:54.840Z,2.33
2022-11-09T09:00:40.106Z,1.60
2022-11-09T09:03:25.969Z,1.65
2022-11-09T09:06:11.306Z,2.38
2022-11-09T09:08:56.830Z,1.90
2022-11-09T09:11:42.374Z,1.77
2022-11-09T09:14:27.754Z,1.83
2022-11-09T09:17:13.092Z,1.75
2022-11-09T09:19:58.660Z,2.08
2022-11-09T09:22:44.590Z,2.00
2022-11-09T09:25:29.972Z,1.42
2022-11-09T09:28:15.524Z,2.03
2022-11-09T09:31:01.839Z,2.10
2022-11-09T09:33:47.604Z,1.80
2022-11-09T09:36:35.138Z,1.90
2022-11-09T09:39:20.644Z,2.47
2022-11-09T09:42:12.784Z,1.92
2022-11-09T09:45:19.678Z,2.20
2022-11-09T09:48:31.203Z,2.40
2022-11-09T09:51:37.561Z,2.20
2022-11-09T09:54:30.035Z,1.90
2022-11-09T09:57:24.656Z,2.38
2022-11-09T10:00:21.656Z,2.67
2022-11-09T10:03:16.488Z,2.00
2022-11-09T10:06:06.150Z,1.60
2022-11-09T10:09:02.454Z,2.13
2022-11-09T10:12:18.349Z,2.35
2022-11-09T10:15:16.822Z,2.25
2022-11-09T10:18:20.885Z,2.63
2022-11-09T10:21:37.243Z,2.08
2022-11-09T10:24:31.746Z,2.13
2022-11-09T10:27:39.838Z,2.15
2022-11-09T10:30:26.368Z,2.08
2022-11-09T10:33:11.724Z,2.00
2022-11-09T10:36:21.854Z,1.90
2022-11-09T10:39:13.811Z,2.20
2022-11-09T10:42:17.853Z,1.73
2022-11-09T10:45:35.608Z,1.77
2022-11-09T10:48:40.501Z,1.60
2022-11-09T10:51:47.832Z,2.15
2022-11-09T10:54:52.372Z,1.98
2022-11-09T10:58:01.080Z,1.88
2022-11-09T11:01:15.453Z,2.00
2022-11-09T11:04:25.199Z,1.70
2022-11-09T11:07:29.514Z,1.85
2022-11-09T11:10:33.907Z,1.63
2022-11-09T11:13:38.297Z,1.50
2022-11-09T11:16:44.039Z,1.40
2022-11-09T11:19:48.407Z,1.73
2022-11-09T11:23:09.048Z,1.63
2022-11-09T11:26:23.092Z,1.88
2022-11-09T11:29:43.400Z,1.60
2022-11-09T11:32:50.785Z,2.08
2022-11-09T11:36:04.795Z,1.10
2022-11-09T11:39:15.584Z,1.30
2022-11-09T11:42:51.776Z,1.33
2022-11-09T11:46:17.879Z,1.80
2022-11-09T11:49:43.276Z,1.48
2022-11-09T11:53:05.149Z,1.30
2022-11-09T11:56:15.676Z,1.80
2022-11-09T11:59:46.992Z,1.60
2022-11-09T12:03:11.747Z,1.90
2022-11-09T12:06:34.600Z,1.92
2022-11-09T12:09:49.954Z,1.85
2022-11-09T12:13:12.111Z,1.40
2022-11-09T12:16:36.239Z,1.38
2022-11-09T12:19:46.097Z,1.13
2022-11-09T12:23:09.148Z,1.00
2022-11-09T12:29:53.315Z,1.00
2022-11-09T12:36:16.104Z,0.98
2022-11-09T12:39:45.949Z,0.88
2022-11-09T12:43:00.506Z,0.95
2022-11-09T12:46:06.395Z,1.00
2022-11-09T12:49:32.574Z,1.00
2022-11-09T12:52:37.821Z,0.90
2022-11-09T12:55:55.140Z,1.20
2022-11-09T12:59:20.184Z,1.02
2022-11-09T13:02:37.871Z,1.10
2022-11-09T13:05:44.749Z,1.13
2022-11-09T13:09:04.895Z,1.10
2022-11-09T13:12:28.381Z,1.00
2022-11-09T13:15:34.488Z,0.90
2022-11-09T13:18:45.264Z,1.55
2022-11-09T13:21:50.161Z,1.38
2022-11-09T13:25:04.499Z,1.08
2022-11-09T13:28:32.173Z,1.17
2022-11-09T13:32:03.678Z,1.20
2022-11-09T13:35:40.163Z,1.00
2022-11-09T13:38:45.304Z,0.82
2022-11-09T13:41:50.075Z,1.20
2022-11-09T13:45:24.376Z,1.27
2022-11-09T13:48:53.275Z,1.50
2022-11-09T13:51:57.351Z,1.33
2022-11-09T13:55:02.834Z,0.90
2022-11-09T13:58:40.917Z,1.00
2022-11-09T14:01:54.293Z,1.30
2022-11-09T14:05:01.724Z,1.08
2022-11-09T14:08:05.851Z,1.15
2022-11-09T14:11:40.179Z,1.00
2022-11-09T14:14:54.862Z,0.90
2022-11-09T14:18:07.873Z,1.10
2022-11-09T14:21:30.955Z,1.50
2022-11-09T14:27:57.508Z,1.17
2022-11-09T14:31:02.546Z,1.10
2022-11-09T14:34:07.641Z,1.05
2022-11-09T14:37:14.336Z,1.10
2022-11-09T14:40:22.549Z,1.38
2022-11-09T14:43:38.395Z,1.38
2022-11-09T14:46:42.524Z,1.70
2022-11-09T14:49:47.982Z,1.63
2022-11-09T14:52:54.434Z,1.23
2022-11-09T14:56:01.648Z,1.10
2022-11-09T14:59:07.298Z,1.23
2022-11-09T15:02:15.149Z,1.38
2022-11-09T15:05:39.382Z,1.38
2022-11-09T15:08:55.135Z,1.27
2022-11-09T15:11:59.547Z,1.15
2022-11-09T15:15:06.696Z,1.42
2022-11-09T15:18:28.948Z,1.10
2022-11-09T15:21:37.986Z,1.55
2022-11-09T15:24:47.747Z,1.25
2022-11-09T15:28:20.095Z,1.40
2022-11-09T15:31:27.631Z,1.20
2022-11-09T15:34:39.618Z,0.98
2022-11-09T15:37:44.211Z,1.20
2022-11-09T15:40:48.987Z,1.48
2022-11-09T15:43:53.359Z,1.00
2022-11-09T15:46:57.797Z,1.10
2022-11-09T15:50:07.850Z,1.00
2022-11-09T15:53:13.795Z,1.05
2022-11-09T15:56:22.638Z,1.50
2022-11-09T15:59:27.456Z,1.20
2022-11-09T16:02:31.726Z,1.25
2022-11-09T16:05:36.412Z,1.15
2022-11-09T16:08:40.827Z,1.10
2022-11-09T16:11:48.528Z,0.98
2022-11-09T16:14:52.772Z,1.05
2022-11-09T16:17:57.222Z,1.05
2022-11-09T16:21:13.944Z,1.13
2022-11-09T16:24:18.295Z,1.40
2022-11-09T16:27:48.450Z,1.10
2022-11-09T16:30:47.170Z,1.17
2022-11-09T16:33:51.676Z,1.20
2022-11-09T16:36:57.065Z,1.27
2022-11-09T16:40:05.638Z,1.23
2022-11-09T16:43:10.441Z,1.05
2022-11-09T16:46:20.848Z,1.30
2022-11-09T16:49:25.420Z,1.42
2022-11-09T16:52:29.533Z,1.33
2022-11-09T16:55:33.915Z,1.10
2022-11-09T16:58:38.120Z,1.25
2022-11-09T17:01:42.320Z,1.10
2022-11-09T17:04:46.673Z,1.10
2022-11-09T17:07:51.375Z,1.10
2022-11-09T17:10:55.792Z,1.20
2022-11-09T17:14:00.512Z,1.63
2022-11-09T17:17:04.459Z,1.00
2022-11-09T17:20:09.669Z,1.02
2022-11-09T17:23:16.065Z,1.25
2022-11-09T17:26:21.369Z,1.00
2022-11-09T17:29:26.398Z,1.40
2022-11-09T17:32:30.520Z,1.20
2022-11-09T17:35:36.658Z,1.30
2022-11-09T17:38:41.145Z,1.20
2022-11-09T17:41:45.356Z,1.48
2022-11-09T17:44:49.647Z,1.50
2022-11-09T17:47:53.852Z,1.30
2022-11-09T17:50:59.842Z,1.50
2022-11-09T17:54:04.538Z,1.50
2022-11-09T17:57:08.604Z,1.63
2022-11-09T18:00:13.487Z,1.70
2022-11-09T18:03:18.163Z,1.52
2022-11-09T18:06:23.840Z,1.35
2022-11-09T18:09:40.698Z,1.38
2022-11-09T18:12:45.243Z,1.20
2022-11-09T18:15:49.984Z,1.50
2022-11-09T18:19:02.782Z,1.67
2022-11-09T18:25:16.983Z,1.70
2022-11-09T18:28:21.503Z,1.70
2022-11-09T18:31:26.281Z,1.10
2022-11-09T18:34:30.281Z,1.30
2022-11-09T18:37:38.166Z,1.30
2022-11-09T18:40:42.255Z,1.27
2022-11-09T18:43:46.591Z,1.35
2022-11-09T18:46:51.548Z,1.10
2022-11-09T18:49:56.036Z,1.30
2022-11-09T18:53:00.828Z,1.05
2022-11-09T18:56:08.760Z,1.52
2022-11-09T18:59:13.067Z,1.55
2022-11-09T19:02:17.366Z,1.42
2022-11-09T19:05:21.734Z,1.48
2022-11-09T19:08:44.803Z,1.60
2022-11-09T19:11:49.219Z,1.40
2022-11-09T19:14:53.803Z,1.60
2022-11-09T19:17:58.057Z,1.27
2022-11-09T19:21:03.181Z,1.20
2022-11-09T19:24:09.078Z,1.38
2022-11-09T19:27:13.569Z,1.20
2022-11-09T19:30:18.112Z,1.33
2022-11-09T19:33:22.428Z,1.30
2022-11-09T19:36:30.610Z,1.17
2022-11-09T19:39:39.105Z,1.42
2022-11-09T19:42:46.375Z,1.20
2022-11-09T19:45:50.784Z,1.20
2022-11-09T19:48:55.001Z,1.27
2022-11-09T19:51:59.204Z,1.10
2022-11-09T19:55:05.040Z,1.30
2022-11-09T19:58:09.893Z,1.08
2022-11-09T20:01:14.072Z,1.55
2022-11-09T20:04:18.267Z,1.20
2022-11-09T20:07:23.206Z,1.10
2022-11-09T20:10:27.393Z,1.38
2022-11-09T20:13:31.841Z,1.58
2022-11-09T20:16:37.338Z,1.50
2022-11-09T20:19:41.760Z,1.20
2022-11-09T20:22:46.030Z,1.45
2022-11-09T20:25:50.374Z,1.45
2022-11-09T20:28:55.595Z,1.40
2022-11-09T20:32:00.074Z,1.25
2022-11-09T20:35:04.670Z,1.42
2022-11-09T20:38:08.603Z,1.48
2022-11-09T20:41:13.302Z,1.55
2022-11-09T20:44:17.532Z,0.93
2022-11-09T20:47:49.258Z,1.20
2022-11-09T20:50:47.287Z,1.13
2022-11-09T20:53:51.982Z,1.30
2022-11-09T20:56:56.043Z,1.40
2022-11-09T21:00:00.311Z,1.60
2022-11-09T21:03:05.842Z,1.83
2022-11-09T21:06:11.875Z,1.30
2022-11-09T21:09:15.953Z,1.48
2022-11-09T21:12:24.632Z,1.23
2022-11-09T21:15:30.106Z,1.23
2022-11-09T21:18:34.534Z,1.08
2022-11-09T21:21:38.404Z,1.42
2022-11-09T21:25:01.187Z,1.40
2022-11-09T21:28:24.352Z,1.15
2022-11-09T21:31:28.401Z,1.30
2022-11-09T21:34:36.838Z,1.63
2022-11-09T21:37:41.624Z,1.70
2022-11-09T21:40:46.147Z,1.52
2022-11-09T21:43:54.966Z,1.75
2022-11-09T21:47:00.462Z,1.90
2022-11-09T21:50:11.129Z,1.92
2022-11-09T21:53:16.903Z,1.98
2022-11-09T21:56:21.628Z,2.15
2022-11-09T21:59:25.590Z,1.60
2022-11-09T22:02:29.982Z,1.85
2022-11-09T22:05:34.314Z,1.85
2022-11-09T22:08:39.287Z,2.00
2022-11-09T22:12:02.544Z,1.75
2022-11-09T22:15:28.356Z,2.30
2022-11-09T22:18:52.905Z,2.22
2022-11-09T22:21:57.092Z,2.50
2022-11-09T22:25:01.677Z,2.28
2022-11-09T22:28:05.939Z,3.10
2022-11-09T22:31:11.164Z,2.33
2022-11-09T22:34:15.500Z,2.20
2022-11-09T22:37:19.921Z,2.53
2022-11-09T22:40:24.151Z,2.65
2022-11-09T22:43:32.656Z,2.13
2022-11-09T22:46:36.944Z,2.47
2022-11-09T22:49:41.555Z,2.45
2022-11-09T22:52:45.892Z,2.17
2022-11-09T22:55:55.008Z,2.15
2022-11-09T22:58:59.138Z,2.10
2022-11-09T23:02:03.599Z,1.90
2022-11-09T23:05:08.737Z,2.28
2022-11-09T23:08:12.918Z,2.20
2022-11-09T23:11:20.496Z,2.13
2022-11-09T23:14:43.443Z,2.38
2022-11-09T23:18:06.099Z,2.20
2022-11-09T23:21:11.157Z,2.33
2022-11-09T23:24:33.857Z,1.77
2022-11-09T23:27:38.477Z,2.88
2022-11-09T23:30:42.644Z,2.42
2022-11-09T23:33:55.118Z,2.60
2022-11-09T23:36:59.372Z,2.28
2022-11-09T23:40:05.125Z,2.50
2022-11-09T23:43:11.677Z,2.13
2022-11-09T23:46:17.252Z,1.83
2022-11-09T23:49:21.593Z,1.85
2022-11-09T23:52:25.699Z,1.90
2022-11-09T23:55:30.250Z,1.88
2022-11-09T23:58:34.548Z,1.58
